sensor_id;sensor_type;location;lat;lon;timestamp;P1;durP1;ratioP1;P2;durP2;ratioP2
21639;SDS011;10981;45.462;10.974;2023-02-12T00:00:25;64.35;;;32.70;;
21639;SDS011;10981;45.462;10.974;2023-02-12T00:02:52;64.43;;;33.67;;
21639;SDS011;10981;45.462;10.974;2023-02-12T00:05:20;63.50;;;33.78;;
21639;SDS011;10981;45.462;10.974;2023-02-12T00:07:48;75.90;;;36.28;;
21639;SDS011;10981;45.462;10.974;2023-02-12T00:10:16;70.75;;;35.47;;
21639;SDS011;10981;45.462;10.974;2023-02-12T00:12:44;77.30;;;39.55;;
21639;SDS011;10981;45.462;10.974;2023-02-12T00:15:15;69.43;;;38.30;;
21639;SDS011;10981;45.462;10.974;2023-02-12T00:17:42;79.38;;;41.47;;
21639;SDS011;10981;45.462;10.974;2023-02-12T00:20:10;76.55;;;40.20;;
21639;SDS011;10981;45.462;10.974;2023-02-12T00:22:38;83.55;;;41.20;;
21639;SDS011;10981;45.462;10.974;2023-02-12T00:25:06;84.07;;;41.63;;
21639;SDS011;10981;45.462;10.974;2023-02-12T00:27:34;111.80;;;50.47;;
21639;SDS011;10981;45.462;10.974;2023-02-12T00:30:02;122.05;;;53.22;;
21639;SDS011;10981;45.462;10.974;2023-02-12T00:32:30;114.57;;;51.95;;
21639;SDS011;10981;45.462;10.974;2023-02-12T00:34:58;121.93;;;54.65;;
21639;SDS011;10981;45.462;10.974;2023-02-12T00:37:25;121.45;;;55.05;;
21639;SDS011;10981;45.462;10.974;2023-02-12T00:39:53;142.13;;;63.80;;
21639;SDS011;10981;45.462;10.974;2023-02-12T00:42:21;190.50;;;78.00;;
21639;SDS011;10981;45.462;10.974;2023-02-12T00:44:49;180.80;;;75.03;;
21639;SDS011;10981;45.462;10.974;2023-02-12T00:47:17;195.95;;;78.88;;
21639;SDS011;10981;45.462;10.974;2023-02-12T00:49:48;170.80;;;75.07;;
21639;SDS011;10981;45.462;10.974;2023-02-12T00:52:17;214.73;;;83.35;;
21639;SDS011;10981;45.462;10.974;2023-02-12T00:54:45;204.55;;;83.55;;
21639;SDS011;10981;45.462;10.974;2023-02-12T00:57:13;221.65;;;87.97;;
21639;SDS011;10981;45.462;10.974;2023-02-12T00:59:40;244.57;;;94.82;;
21639;SDS011;10981;45.462;10.974;2023-02-12T01:02:08;228.48;;;92.38;;
21639;SDS011;10981;45.462;10.974;2023-02-12T01:04:36;261.98;;;102.47;;
21639;SDS011;10981;45.462;10.974;2023-02-12T01:07:04;215.18;;;84.45;;
21639;SDS011;10981;45.462;10.974;2023-02-12T01:09:33;151.82;;;66.00;;
21639;SDS011;10981;45.462;10.974;2023-02-12T01:12:01;145.18;;;66.40;;
21639;SDS011;10981;45.462;10.974;2023-02-12T01:14:29;153.05;;;69.28;;
21639;SDS011;10981;45.462;10.974;2023-02-12T01:17:01;157.23;;;66.07;;
21639;SDS011;10981;45.462;10.974;2023-02-12T01:19:29;146.30;;;60.97;;
21639;SDS011;10981;45.462;10.974;2023-02-12T01:21:57;128.57;;;58.63;;
21639;SDS011;10981;45.462;10.974;2023-02-12T01:24:25;184.20;;;77.88;;
21639;SDS011;10981;45.462;10.974;2023-02-12T01:26:52;149.52;;;66.15;;
21639;SDS011;10981;45.462;10.974;2023-02-12T01:29:20;158.93;;;65.45;;
21639;SDS011;10981;45.462;10.974;2023-02-12T01:31:48;135.13;;;61.33;;
21639;SDS011;10981;45.462;10.974;2023-02-12T01:34:16;127.57;;;60.25;;
21639;SDS011;10981;45.462;10.974;2023-02-12T01:36:44;137.00;;;58.35;;
21639;SDS011;10981;45.462;10.974;2023-02-12T01:39:12;130.80;;;59.72;;
21639;SDS011;10981;45.462;10.974;2023-02-12T01:41:43;129.07;;;59.75;;
21639;SDS011;10981;45.462;10.974;2023-02-12T01:44:19;133.52;;;59.67;;
21639;SDS011;10981;45.462;10.974;2023-02-12T01:46:54;137.93;;;64.97;;
21639;SDS011;10981;45.462;10.974;2023-02-12T01:49:27;147.77;;;67.70;;
21639;SDS011;10981;45.462;10.974;2023-02-12T01:52:30;136.18;;;64.43;;
21639;SDS011;10981;45.462;10.974;2023-02-12T01:54:50;147.85;;;67.40;;
21639;SDS011;10981;45.462;10.974;2023-02-12T01:57:23;145.83;;;65.67;;
21639;SDS011;10981;45.462;10.974;2023-02-12T01:59:51;156.73;;;67.03;;
21639;SDS011;10981;45.462;10.974;2023-02-12T02:02:20;137.15;;;64.35;;
21639;SDS011;10981;45.462;10.974;2023-02-12T02:04:59;144.25;;;64.95;;
21639;SDS011;10981;45.462;10.974;2023-02-12T02:07:29;142.68;;;65.38;;
21639;SDS011;10981;45.462;10.974;2023-02-12T02:09:57;137.68;;;62.63;;
21639;SDS011;10981;45.462;10.974;2023-02-12T02:12:28;148.82;;;65.82;;
21639;SDS011;10981;45.462;10.974;2023-02-12T02:15:16;145.43;;;66.20;;
21639;SDS011;10981;45.462;10.974;2023-02-12T02:17:50;139.70;;;61.13;;
21639;SDS011;10981;45.462;10.974;2023-02-12T02:22:52;139.50;;;62.50;;
21639;SDS011;10981;45.462;10.974;2023-02-12T02:39:02;136.75;;;59.83;;
21639;SDS011;10981;45.462;10.974;2023-02-12T02:44:13;127.43;;;59.35;;
21639;SDS011;10981;45.462;10.974;2023-02-12T02:46:46;132.18;;;60.38;;
21639;SDS011;10981;45.462;10.974;2023-02-12T02:49:26;119.72;;;57.88;;
21639;SDS011;10981;45.462;10.974;2023-02-12T02:51:56;114.72;;;56.78;;
21639;SDS011;10981;45.462;10.974;2023-02-12T02:54:28;139.60;;;58.85;;
21639;SDS011;10981;45.462;10.974;2023-02-12T02:56:59;120.97;;;57.40;;
21639;SDS011;10981;45.462;10.974;2023-02-12T02:59:32;113.97;;;52.77;;
21639;SDS011;10981;45.462;10.974;2023-02-12T03:02:05;244.30;;;101.10;;
21639;SDS011;10981;45.462;10.974;2023-02-12T03:04:40;210.90;;;86.07;;
21639;SDS011;10981;45.462;10.974;2023-02-12T03:07:09;189.68;;;84.63;;
21639;SDS011;10981;45.462;10.974;2023-02-12T03:09:42;188.73;;;80.00;;
21639;SDS011;10981;45.462;10.974;2023-02-12T03:12:13;189.20;;;79.90;;
21639;SDS011;10981;45.462;10.974;2023-02-12T03:14:43;169.60;;;71.70;;
21639;SDS011;10981;45.462;10.974;2023-02-12T03:17:18;178.30;;;77.90;;
21639;SDS011;10981;45.462;10.974;2023-02-12T03:19:52;192.82;;;82.07;;
21639;SDS011;10981;45.462;10.974;2023-02-12T03:22:29;223.48;;;93.28;;
21639;SDS011;10981;45.462;10.974;2023-02-12T03:25:02;237.52;;;99.20;;
21639;SDS011;10981;45.462;10.974;2023-02-12T03:27:36;215.95;;;92.93;;
21639;SDS011;10981;45.462;10.974;2023-02-12T03:30:05;247.77;;;101.82;;
21639;SDS011;10981;45.462;10.974;2023-02-12T03:35:15;248.20;;;106.80;;
21639;SDS011;10981;45.462;10.974;2023-02-12T03:40:19;220.75;;;94.25;;
21639;SDS011;10981;45.462;10.974;2023-02-12T03:43:05;222.40;;;93.93;;
21639;SDS011;10981;45.462;10.974;2023-02-12T03:45:52;220.30;;;91.47;;
21639;SDS011;10981;45.462;10.974;2023-02-12T03:54:06;189.90;;;78.85;;
21639;SDS011;10981;45.462;10.974;2023-02-12T03:56:40;188.73;;;79.05;;
21639;SDS011;10981;45.462;10.974;2023-02-12T03:59:09;195.18;;;84.63;;
21639;SDS011;10981;45.462;10.974;2023-02-12T04:01:37;195.45;;;81.80;;
21639;SDS011;10981;45.462;10.974;2023-02-12T04:04:06;183.73;;;81.15;;
21639;SDS011;10981;45.462;10.974;2023-02-12T04:06:34;175.18;;;76.90;;
21639;SDS011;10981;45.462;10.974;2023-02-12T04:09:03;160.23;;;71.15;;
21639;SDS011;10981;45.462;10.974;2023-02-12T04:14:13;149.02;;;70.50;;
21639;SDS011;10981;45.462;10.974;2023-02-12T04:19:15;160.88;;;71.20;;
21639;SDS011;10981;45.462;10.974;2023-02-12T04:21:57;124.75;;;57.88;;
21639;SDS011;10981;45.462;10.974;2023-02-12T04:32:31;102.57;;;51.15;;
21639;SDS011;10981;45.462;10.974;2023-02-12T04:37:35;103.28;;;50.20;;
21639;SDS011;10981;45.462;10.974;2023-02-12T04:40:05;102.68;;;50.40;;
21639;SDS011;10981;45.462;10.974;2023-02-12T04:42:45;144.95;;;61.58;;
21639;SDS011;10981;45.462;10.974;2023-02-12T04:45:14;141.90;;;59.70;;
21639;SDS011;10981;45.462;10.974;2023-02-12T04:47:42;135.95;;;60.90;;
21639;SDS011;10981;45.462;10.974;2023-02-12T04:50:10;130.85;;;56.67;;
21639;SDS011;10981;45.462;10.974;2023-02-12T04:52:38;132.00;;;56.10;;
21639;SDS011;10981;45.462;10.974;2023-02-12T04:55:06;128.38;;;57.72;;
21639;SDS011;10981;45.462;10.974;2023-02-12T04:57:34;136.07;;;60.70;;
21639;SDS011;10981;45.462;10.974;2023-02-12T05:00:03;147.57;;;60.75;;
21639;SDS011;10981;45.462;10.974;2023-02-12T05:02:34;138.63;;;62.92;;
21639;SDS011;10981;45.462;10.974;2023-02-12T05:05:02;139.00;;;62.70;;
21639;SDS011;10981;45.462;10.974;2023-02-12T05:07:30;130.35;;;62.00;;
21639;SDS011;10981;45.462;10.974;2023-02-12T05:09:58;128.25;;;57.80;;
21639;SDS011;10981;45.462;10.974;2023-02-12T05:12:26;128.88;;;56.28;;
21639;SDS011;10981;45.462;10.974;2023-02-12T05:14:53;126.22;;;56.13;;
21639;SDS011;10981;45.462;10.974;2023-02-12T05:17:22;133.23;;;58.33;;
21639;SDS011;10981;45.462;10.974;2023-02-12T05:19:50;131.82;;;58.20;;
21639;SDS011;10981;45.462;10.974;2023-02-12T05:22:18;125.50;;;56.50;;
21639;SDS011;10981;45.462;10.974;2023-02-12T05:24:46;119.30;;;54.08;;
21639;SDS011;10981;45.462;10.974;2023-02-12T05:27:13;117.55;;;55.45;;
21639;SDS011;10981;45.462;10.974;2023-02-12T05:29:41;126.57;;;54.47;;
21639;SDS011;10981;45.462;10.974;2023-02-12T05:32:09;130.05;;;58.10;;
21639;SDS011;10981;45.462;10.974;2023-02-12T05:34:37;137.77;;;61.50;;
21639;SDS011;10981;45.462;10.974;2023-02-12T05:37:08;146.82;;;62.28;;
21639;SDS011;10981;45.462;10.974;2023-02-12T05:39:35;144.82;;;59.92;;
21639;SDS011;10981;45.462;10.974;2023-02-12T05:42:03;120.07;;;55.63;;
21639;SDS011;10981;45.462;10.974;2023-02-12T05:44:31;133.43;;;59.28;;
21639;SDS011;10981;45.462;10.974;2023-02-12T05:46:59;142.38;;;58.72;;
21639;SDS011;10981;45.462;10.974;2023-02-12T05:49:27;134.80;;;62.00;;
21639;SDS011;10981;45.462;10.974;2023-02-12T05:51:54;132.82;;;59.30;;
21639;SDS011;10981;45.462;10.974;2023-02-12T05:54:22;130.23;;;58.40;;
21639;SDS011;10981;45.462;10.974;2023-02-12T05:56:50;136.10;;;56.13;;
21639;SDS011;10981;45.462;10.974;2023-02-12T05:59:19;144.93;;;61.05;;
21639;SDS011;10981;45.462;10.974;2023-02-12T06:01:48;137.25;;;57.45;;
21639;SDS011;10981;45.462;10.974;2023-02-12T06:04:21;146.82;;;67.43;;
21639;SDS011;10981;45.462;10.974;2023-02-12T06:06:50;160.40;;;69.50;;
21639;SDS011;10981;45.462;10.974;2023-02-12T06:09:18;156.50;;;69.60;;
21639;SDS011;10981;45.462;10.974;2023-02-12T06:11:46;179.50;;;77.13;;
21639;SDS011;10981;45.462;10.974;2023-02-12T06:14:15;186.68;;;76.97;;
21639;SDS011;10981;45.462;10.974;2023-02-12T06:16:44;184.25;;;78.30;;
21639;SDS011;10981;45.462;10.974;2023-02-12T06:19:15;197.70;;;82.95;;
21639;SDS011;10981;45.462;10.974;2023-02-12T06:21:43;220.65;;;88.00;;
21639;SDS011;10981;45.462;10.974;2023-02-12T06:24:12;235.15;;;97.13;;
21639;SDS011;10981;45.462;10.974;2023-02-12T06:26:40;210.75;;;93.97;;
21639;SDS011;10981;45.462;10.974;2023-02-12T06:29:08;233.85;;;97.38;;
21639;SDS011;10981;45.462;10.974;2023-02-12T06:31:36;216.38;;;89.80;;
21639;SDS011;10981;45.462;10.974;2023-02-12T06:34:05;249.25;;;104.10;;
21639;SDS011;10981;45.462;10.974;2023-02-12T06:36:34;279.77;;;114.72;;
21639;SDS011;10981;45.462;10.974;2023-02-12T06:39:04;304.27;;;121.88;;
21639;SDS011;10981;45.462;10.974;2023-02-12T06:41:32;267.13;;;109.03;;
21639;SDS011;10981;45.462;10.974;2023-02-12T06:44:00;260.90;;;106.78;;
21639;SDS011;10981;45.462;10.974;2023-02-12T06:46:28;306.38;;;118.63;;
21639;SDS011;10981;45.462;10.974;2023-02-12T06:48:56;333.92;;;132.05;;
21639;SDS011;10981;45.462;10.974;2023-02-12T06:51:25;359.50;;;134.30;;
21639;SDS011;10981;45.462;10.974;2023-02-12T06:53:53;358.58;;;138.18;;
21639;SDS011;10981;45.462;10.974;2023-02-12T06:56:22;362.05;;;135.65;;
21639;SDS011;10981;45.462;10.974;2023-02-12T06:58:54;365.20;;;140.25;;
21639;SDS011;10981;45.462;10.974;2023-02-12T07:01:24;357.83;;;143.20;;
21639;SDS011;10981;45.462;10.974;2023-02-12T07:03:54;350.40;;;140.65;;
21639;SDS011;10981;45.462;10.974;2023-02-12T07:06:23;345.08;;;140.07;;
21639;SDS011;10981;45.462;10.974;2023-02-12T07:08:53;328.95;;;128.93;;
21639;SDS011;10981;45.462;10.974;2023-02-12T07:11:28;309.20;;;123.47;;
21639;SDS011;10981;45.462;10.974;2023-02-12T07:13:56;313.85;;;123.55;;
21639;SDS011;10981;45.462;10.974;2023-02-12T07:16:24;314.80;;;123.97;;
21639;SDS011;10981;45.462;10.974;2023-02-12T07:18:52;322.98;;;126.18;;
21639;SDS011;10981;45.462;10.974;2023-02-12T07:21:20;324.88;;;123.65;;
21639;SDS011;10981;45.462;10.974;2023-02-12T07:23:49;311.60;;;123.28;;
21639;SDS011;10981;45.462;10.974;2023-02-12T07:26:17;309.50;;;124.53;;
21639;SDS011;10981;45.462;10.974;2023-02-12T07:28:46;296.92;;;119.38;;
21639;SDS011;10981;45.462;10.974;2023-02-12T07:31:15;298.90;;;116.82;;
21639;SDS011;10981;45.462;10.974;2023-02-12T07:33:44;269.10;;;109.32;;
21639;SDS011;10981;45.462;10.974;2023-02-12T07:36:17;278.88;;;109.63;;
21639;SDS011;10981;45.462;10.974;2023-02-12T07:38:45;281.15;;;109.15;;
21639;SDS011;10981;45.462;10.974;2023-02-12T07:41:17;263.23;;;101.47;;
21639;SDS011;10981;45.462;10.974;2023-02-12T07:43:46;260.48;;;101.60;;
21639;SDS011;10981;45.462;10.974;2023-02-12T07:46:16;285.92;;;107.32;;
21639;SDS011;10981;45.462;10.974;2023-02-12T07:48:44;270.98;;;104.85;;
21639;SDS011;10981;45.462;10.974;2023-02-12T07:51:13;250.18;;;101.95;;
21639;SDS011;10981;45.462;10.974;2023-02-12T07:53:41;241.32;;;96.38;;
21639;SDS011;10981;45.462;10.974;2023-02-12T07:56:11;238.00;;;86.25;;
21639;SDS011;10981;45.462;10.974;2023-02-12T07:58:40;202.80;;;81.32;;
21639;SDS011;10981;45.462;10.974;2023-02-12T08:03:39;217.85;;;86.75;;
21639;SDS011;10981;45.462;10.974;2023-02-12T08:06:10;197.60;;;82.20;;
21639;SDS011;10981;45.462;10.974;2023-02-12T08:08:39;184.18;;;76.05;;
21639;SDS011;10981;45.462;10.974;2023-02-12T08:11:08;171.93;;;76.25;;
21639;SDS011;10981;45.462;10.974;2023-02-12T08:13:36;185.20;;;78.25;;
21639;SDS011;10981;45.462;10.974;2023-02-12T08:16:08;181.90;;;78.07;;
21639;SDS011;10981;45.462;10.974;2023-02-12T08:18:36;182.70;;;81.13;;
21639;SDS011;10981;45.462;10.974;2023-02-12T08:21:06;181.25;;;77.20;;
21639;SDS011;10981;45.462;10.974;2023-02-12T08:23:34;177.73;;;75.78;;
21639;SDS011;10981;45.462;10.974;2023-02-12T08:26:06;170.52;;;76.07;;
21639;SDS011;10981;45.462;10.974;2023-02-12T08:28:34;145.32;;;66.80;;
21639;SDS011;10981;45.462;10.974;2023-02-12T08:31:03;137.30;;;64.80;;
21639;SDS011;10981;45.462;10.974;2023-02-12T08:33:32;149.90;;;65.53;;
21639;SDS011;10981;45.462;10.974;2023-02-12T08:36:09;142.85;;;66.60;;
21639;SDS011;10981;45.462;10.974;2023-02-12T08:38:38;157.82;;;69.43;;
21639;SDS011;10981;45.462;10.974;2023-02-12T08:41:09;177.38;;;77.18;;
21639;SDS011;10981;45.462;10.974;2023-02-12T08:43:38;160.40;;;72.22;;
21639;SDS011;10981;45.462;10.974;2023-02-12T08:46:08;171.73;;;73.50;;
21639;SDS011;10981;45.462;10.974;2023-02-12T08:48:36;197.25;;;78.60;;
21639;SDS011;10981;45.462;10.974;2023-02-12T08:53:35;225.00;;;88.20;;
21639;SDS011;10981;45.462;10.974;2023-02-12T08:56:06;169.95;;;73.70;;
21639;SDS011;10981;45.462;10.974;2023-02-12T08:58:34;167.65;;;72.43;;
21639;SDS011;10981;45.462;10.974;2023-02-12T09:01:03;155.55;;;60.33;;
21639;SDS011;10981;45.462;10.974;2023-02-12T09:03:31;131.00;;;54.22;;
21639;SDS011;10981;45.462;10.974;2023-02-12T09:06:01;113.53;;;51.75;;
21639;SDS011;10981;45.462;10.974;2023-02-12T09:08:29;115.20;;;49.65;;
21639;SDS011;10981;45.462;10.974;2023-02-12T09:10:57;128.63;;;50.22;;
21639;SDS011;10981;45.462;10.974;2023-02-12T09:13:25;118.65;;;49.55;;
21639;SDS011;10981;45.462;10.974;2023-02-12T09:15:53;105.60;;;45.75;;
21639;SDS011;10981;45.462;10.974;2023-02-12T09:18:22;105.85;;;43.45;;
21639;SDS011;10981;45.462;10.974;2023-02-12T09:20:49;137.13;;;52.45;;
21639;SDS011;10981;45.462;10.974;2023-02-12T09:23:17;118.63;;;52.20;;
21639;SDS011;10981;45.462;10.974;2023-02-12T09:25:45;113.13;;;51.50;;
21639;SDS011;10981;45.462;10.974;2023-02-12T09:28:13;134.90;;;53.22;;
21639;SDS011;10981;45.462;10.974;2023-02-12T09:30:41;116.25;;;49.70;;
21639;SDS011;10981;45.462;10.974;2023-02-12T09:33:09;126.60;;;51.30;;
21639;SDS011;10981;45.462;10.974;2023-02-12T09:35:38;105.75;;;46.38;;
21639;SDS011;10981;45.462;10.974;2023-02-12T09:38:06;82.07;;;39.65;;
21639;SDS011;10981;45.462;10.974;2023-02-12T09:40:39;65.90;;;33.47;;
21639;SDS011;10981;45.462;10.974;2023-02-12T09:45:41;60.30;;;31.73;;
21639;SDS011;10981;45.462;10.974;2023-02-12T09:48:28;57.58;;;29.17;;
21639;SDS011;10981;45.462;10.974;2023-02-12T09:50:59;56.40;;;30.90;;
21639;SDS011;10981;45.462;10.974;2023-02-12T09:53:29;61.35;;;31.27;;
21639;SDS011;10981;45.462;10.974;2023-02-12T09:55:58;64.00;;;33.85;;
21639;SDS011;10981;45.462;10.974;2023-02-12T09:58:32;60.13;;;32.95;;
21639;SDS011;10981;45.462;10.974;2023-02-12T10:01:09;65.35;;;32.22;;
21639;SDS011;10981;45.462;10.974;2023-02-12T10:03:38;58.05;;;31.02;;
21639;SDS011;10981;45.462;10.974;2023-02-12T10:06:06;63.60;;;32.30;;
21639;SDS011;10981;45.462;10.974;2023-02-12T10:08:40;59.28;;;31.98;;
21639;SDS011;10981;45.462;10.974;2023-02-12T10:16:33;56.63;;;32.00;;
21639;SDS011;10981;45.462;10.974;2023-02-12T10:26:47;53.25;;;31.13;;
21639;SDS011;10981;45.462;10.974;2023-02-12T10:31:47;57.92;;;31.55;;
21639;SDS011;10981;45.462;10.974;2023-02-12T10:34:22;62.80;;;32.97;;
21639;SDS011;10981;45.462;10.974;2023-02-12T10:36:53;57.42;;;32.28;;
21639;SDS011;10981;45.462;10.974;2023-02-12T10:39:25;60.40;;;33.90;;
21639;SDS011;10981;45.462;10.974;2023-02-12T10:41:57;60.15;;;34.15;;
21639;SDS011;10981;45.462;10.974;2023-02-12T10:44:28;60.45;;;32.53;;
21639;SDS011;10981;45.462;10.974;2023-02-12T10:46:56;53.65;;;31.17;;
21639;SDS011;10981;45.462;10.974;2023-02-12T10:49:24;51.33;;;31.48;;
21639;SDS011;10981;45.462;10.974;2023-02-12T10:51:55;57.33;;;33.22;;
21639;SDS011;10981;45.462;10.974;2023-02-12T10:54:35;57.33;;;32.33;;
21639;SDS011;10981;45.462;10.974;2023-02-12T10:57:14;54.65;;;31.52;;
21639;SDS011;10981;45.462;10.974;2023-02-12T10:59:43;57.25;;;32.88;;
21639;SDS011;10981;45.462;10.974;2023-02-12T11:04:45;63.70;;;34.75;;
21639;SDS011;10981;45.462;10.974;2023-02-12T11:07:13;62.08;;;34.00;;
21639;SDS011;10981;45.462;10.974;2023-02-12T11:09:42;61.92;;;34.20;;
21639;SDS011;10981;45.462;10.974;2023-02-12T11:12:18;58.20;;;34.87;;
21639;SDS011;10981;45.462;10.974;2023-02-12T11:14:48;61.35;;;33.60;;
21639;SDS011;10981;45.462;10.974;2023-02-12T11:17:27;57.60;;;33.95;;
21639;SDS011;10981;45.462;10.974;2023-02-12T11:20:01;60.17;;;34.38;;
21639;SDS011;10981;45.462;10.974;2023-02-12T11:22:29;55.65;;;33.35;;
21639;SDS011;10981;45.462;10.974;2023-02-12T11:25:01;66.07;;;36.92;;
21639;SDS011;10981;45.462;10.974;2023-02-12T11:27:29;61.60;;;37.03;;
21639;SDS011;10981;45.462;10.974;2023-02-12T11:30:11;60.22;;;34.20;;
21639;SDS011;10981;45.462;10.974;2023-02-12T11:32:39;56.40;;;33.58;;
21639;SDS011;10981;45.462;10.974;2023-02-12T11:35:15;54.92;;;32.42;;
21639;SDS011;10981;45.462;10.974;2023-02-12T11:37:50;57.10;;;32.63;;
21639;SDS011;10981;45.462;10.974;2023-02-12T11:40:23;59.95;;;33.28;;
21639;SDS011;10981;45.462;10.974;2023-02-12T11:42:55;58.40;;;33.53;;
21639;SDS011;10981;45.462;10.974;2023-02-12T11:45:34;47.30;;;29.20;;
21639;SDS011;10981;45.462;10.974;2023-02-12T11:48:09;47.40;;;29.38;;
21639;SDS011;10981;45.462;10.974;2023-02-12T11:50:40;49.15;;;28.42;;
21639;SDS011;10981;45.462;10.974;2023-02-12T11:53:18;53.97;;;30.23;;
21639;SDS011;10981;45.462;10.974;2023-02-12T11:55:53;47.63;;;29.45;;
21639;SDS011;10981;45.462;10.974;2023-02-12T11:58:22;51.63;;;31.17;;
21639;SDS011;10981;45.462;10.974;2023-02-12T12:00:52;48.35;;;30.58;;
21639;SDS011;10981;45.462;10.974;2023-02-12T12:03:27;49.65;;;31.65;;
21639;SDS011;10981;45.462;10.974;2023-02-12T12:05:58;53.95;;;32.15;;
21639;SDS011;10981;45.462;10.974;2023-02-12T12:08:28;58.30;;;36.35;;
21639;SDS011;10981;45.462;10.974;2023-02-12T12:13:44;60.77;;;37.03;;
21639;SDS011;10981;45.462;10.974;2023-02-12T12:16:15;60.28;;;36.63;;
21639;SDS011;10981;45.462;10.974;2023-02-12T12:19:10;61.20;;;38.33;;
21639;SDS011;10981;45.462;10.974;2023-02-12T12:27:21;52.90;;;35.70;;
21639;SDS011;10981;45.462;10.974;2023-02-12T12:30:17;52.60;;;36.00;;
21639;SDS011;10981;45.462;10.974;2023-02-12T12:32:48;54.70;;;36.40;;
21639;SDS011;10981;45.462;10.974;2023-02-12T12:35:20;60.22;;;36.85;;
21639;SDS011;10981;45.462;10.974;2023-02-12T12:38:05;52.97;;;33.97;;
21639;SDS011;10981;45.462;10.974;2023-02-12T12:48:30;54.33;;;36.08;;
21639;SDS011;10981;45.462;10.974;2023-02-12T12:53:49;57.55;;;36.05;;
21639;SDS011;10981;45.462;10.974;2023-02-12T13:04:45;60.25;;;39.50;;
21639;SDS011;10981;45.462;10.974;2023-02-12T13:09:46;62.30;;;39.38;;
21639;SDS011;10981;45.462;10.974;2023-02-12T13:15:20;69.43;;;42.07;;
21639;SDS011;10981;45.462;10.974;2023-02-12T13:20:56;69.30;;;42.70;;
21639;SDS011;10981;45.462;10.974;2023-02-12T13:26:06;65.78;;;41.28;;
21639;SDS011;10981;45.462;10.974;2023-02-12T13:28:37;56.45;;;36.97;;
21639;SDS011;10981;45.462;10.974;2023-02-12T13:31:07;36.67;;;24.90;;
21639;SDS011;10981;45.462;10.974;2023-02-12T13:33:57;29.63;;;19.23;;
21639;SDS011;10981;45.462;10.974;2023-02-12T13:36:26;24.40;;;16.65;;
21639;SDS011;10981;45.462;10.974;2023-02-12T13:39:00;24.50;;;16.42;;
21639;SDS011;10981;45.462;10.974;2023-02-12T13:41:31;20.85;;;14.70;;
21639;SDS011;10981;45.462;10.974;2023-02-12T13:46:37;22.95;;;14.05;;
21639;SDS011;10981;45.462;10.974;2023-02-12T13:51:48;14.85;;;11.80;;
21639;SDS011;10981;45.462;10.974;2023-02-12T13:56:54;16.42;;;9.93;;
21639;SDS011;10981;45.462;10.974;2023-02-12T14:02:03;15.73;;;9.48;;
21639;SDS011;10981;45.462;10.974;2023-02-12T14:04:32;13.68;;;9.48;;
21639;SDS011;10981;45.462;10.974;2023-02-12T14:07:02;14.10;;;10.73;;
21639;SDS011;10981;45.462;10.974;2023-02-12T14:12:01;14.93;;;10.55;;
21639;SDS011;10981;45.462;10.974;2023-02-12T14:14:31;17.63;;;10.95;;
21639;SDS011;10981;45.462;10.974;2023-02-12T14:24:53;16.85;;;12.20;;
21639;SDS011;10981;45.462;10.974;2023-02-12T14:30:20;23.08;;;13.95;;
21639;SDS011;10981;45.462;10.974;2023-02-12T14:37:58;20.35;;;14.48;;
21639;SDS011;10981;45.462;10.974;2023-02-12T14:42:57;23.88;;;14.63;;
21639;SDS011;10981;45.462;10.974;2023-02-12T14:45:26;19.35;;;12.93;;
21639;SDS011;10981;45.462;10.974;2023-02-12T14:47:54;20.15;;;13.80;;
21639;SDS011;10981;45.462;10.974;2023-02-12T14:50:30;20.83;;;14.02;;
21639;SDS011;10981;45.462;10.974;2023-02-12T14:53:07;20.83;;;14.07;;
21639;SDS011;10981;45.462;10.974;2023-02-12T14:55:39;22.33;;;15.25;;
21639;SDS011;10981;45.462;10.974;2023-02-12T14:58:15;22.15;;;15.23;;
21639;SDS011;10981;45.462;10.974;2023-02-12T15:00:44;23.52;;;15.00;;
21639;SDS011;10981;45.462;10.974;2023-02-12T15:05:53;23.60;;;15.05;;
21639;SDS011;10981;45.462;10.974;2023-02-12T15:16:22;22.83;;;15.48;;
21639;SDS011;10981;45.462;10.974;2023-02-12T15:18:55;23.63;;;15.23;;
21639;SDS011;10981;45.462;10.974;2023-02-12T15:21:25;23.00;;;14.38;;
21639;SDS011;10981;45.462;10.974;2023-02-12T15:24:05;23.25;;;15.05;;
21639;SDS011;10981;45.462;10.974;2023-02-12T15:26:40;22.90;;;14.23;;
21639;SDS011;10981;45.462;10.974;2023-02-12T15:29:15;24.75;;;14.00;;
21639;SDS011;10981;45.462;10.974;2023-02-12T15:31:50;22.77;;;15.48;;
21639;SDS011;10981;45.462;10.974;2023-02-12T15:34:19;29.38;;;15.52;;
21639;SDS011;10981;45.462;10.974;2023-02-12T15:36:48;21.98;;;14.48;;
21639;SDS011;10981;45.462;10.974;2023-02-12T15:39:17;25.25;;;14.90;;
21639;SDS011;10981;45.462;10.974;2023-02-12T15:41:47;25.33;;;15.73;;
21639;SDS011;10981;45.462;10.974;2023-02-12T15:44:25;29.25;;;15.43;;
21639;SDS011;10981;45.462;10.974;2023-02-12T15:46:54;24.55;;;13.98;;
21639;SDS011;10981;45.462;10.974;2023-02-12T15:49:25;24.27;;;15.27;;
21639;SDS011;10981;45.462;10.974;2023-02-12T15:51:53;25.30;;;14.73;;
21639;SDS011;10981;45.462;10.974;2023-02-12T15:54:22;24.52;;;14.63;;
21639;SDS011;10981;45.462;10.974;2023-02-12T15:56:50;23.50;;;14.25;;
21639;SDS011;10981;45.462;10.974;2023-02-12T15:59:22;24.33;;;13.95;;
21639;SDS011;10981;45.462;10.974;2023-02-12T16:04:24;27.27;;;16.15;;
21639;SDS011;10981;45.462;10.974;2023-02-12T16:06:53;24.25;;;15.55;;
21639;SDS011;10981;45.462;10.974;2023-02-12T16:09:26;25.35;;;15.00;;
21639;SDS011;10981;45.462;10.974;2023-02-12T16:11:56;25.38;;;14.80;;
21639;SDS011;10981;45.462;10.974;2023-02-12T16:14:39;26.75;;;15.13;;
21639;SDS011;10981;45.462;10.974;2023-02-12T16:19:59;22.88;;;13.90;;
21639;SDS011;10981;45.462;10.974;2023-02-12T16:22:46;22.63;;;13.32;;
21639;SDS011;10981;45.462;10.974;2023-02-12T16:27:48;24.23;;;13.68;;
21639;SDS011;10981;45.462;10.974;2023-02-12T16:30:24;23.08;;;14.18;;
21639;SDS011;10981;45.462;10.974;2023-02-12T16:32:53;26.00;;;13.90;;
21639;SDS011;10981;45.462;10.974;2023-02-12T16:35:22;24.85;;;12.93;;
21639;SDS011;10981;45.462;10.974;2023-02-12T16:38:00;23.63;;;12.57;;
21639;SDS011;10981;45.462;10.974;2023-02-12T16:40:30;22.58;;;12.70;;
21639;SDS011;10981;45.462;10.974;2023-02-12T16:42:59;23.02;;;13.10;;
21639;SDS011;10981;45.462;10.974;2023-02-12T16:50:47;20.58;;;12.50;;
21639;SDS011;10981;45.462;10.974;2023-02-12T16:55:50;19.63;;;11.43;;
21639;SDS011;10981;45.462;10.974;2023-02-12T16:58:17;16.85;;;11.80;;
21639;SDS011;10981;45.462;10.974;2023-02-12T17:00:46;20.00;;;10.60;;
21639;SDS011;10981;45.462;10.974;2023-02-12T17:03:15;20.77;;;11.52;;
21639;SDS011;10981;45.462;10.974;2023-02-12T17:05:45;17.15;;;11.32;;
21639;SDS011;10981;45.462;10.974;2023-02-12T17:08:16;19.17;;;11.15;;